Adams, Oklahoma
Current Conditions -  °F | °C
As of 1:55 PM on Monday 24 Nov 2014 (Local Time) from KLBL Reporting Station
Few Clouds Few Clouds  
Wind Chill: 52°   Ceiling: Unl
Heat Index: 52°   Visibility: 10mi
Dew Point: 12°   Wind: 18mph
Humidity: 21%   Direction: 310°NW
Pressure: 29.99"   Gusts: 25mph
Location:  36.76°N, 101.08°W
Report Text: KLBL 241955Z AUTO 31016G22KT 10SM FEW100 11/M11 A2999 RMK AO1
Loading
Personal Weather Stations






























Interactive Weather Map New forecast layout! Learn more

10-Day Weather Forecast

Advertisements
Track Severe Weather on mobile